createdAt,value
2017-11-29T00:00:12.446Z,8.4
2017-11-29T00:01:16.754Z,8.3
2017-11-29T00:02:19.309Z,8.2
2017-11-29T00:03:21.859Z,8.2
2017-11-29T00:04:24.280Z,8.1
2017-11-29T00:05:26.660Z,7.9
2017-11-29T00:06:29.098Z,8.1
2017-11-29T00:07:31.627Z,7.9
2017-11-29T00:08:34.001Z,8.2
2017-11-29T00:09:36.423Z,8
2017-11-29T00:10:38.837Z,7.9
2017-11-29T00:11:41.315Z,8
2017-11-29T00:12:43.635Z,7.9
2017-11-29T00:13:46.095Z,8
2017-11-29T00:14:48.476Z,8.1
2017-11-29T00:15:50.891Z,7.7
2017-11-29T00:16:53.264Z,7.8
2017-11-29T00:17:55.656Z,7.8
2017-11-29T00:18:58.022Z,7.8
2017-11-29T00:20:00.439Z,8
2017-11-29T00:21:03.048Z,8.1
2017-11-29T00:22:05.533Z,7.8
2017-11-29T00:23:07.990Z,8.1
2017-11-29T00:24:10.696Z,8.1
2017-11-29T00:25:13.136Z,8.3
2017-11-29T00:26:19.027Z,8.3
2017-11-29T00:27:23.688Z,8.5
2017-11-29T00:28:26.113Z,8.3
2017-11-29T00:29:28.623Z,8.2
2017-11-29T00:30:31.190Z,8.3
2017-11-29T00:31:33.807Z,8.4
2017-11-29T00:32:36.543Z,8
2017-11-29T00:33:38.979Z,8
2017-11-29T00:34:41.421Z,8.4
2017-11-29T00:35:43.847Z,8.6
2017-11-29T00:36:46.306Z,8.5
2017-11-29T00:37:48.663Z,8.3
2017-11-29T00:38:51.128Z,8.3
2017-11-29T00:39:53.481Z,8.2
2017-11-29T00:40:55.900Z,8.2
2017-11-29T00:41:58.318Z,8.6
2017-11-29T00:43:02.977Z,8.6
2017-11-29T00:44:06.272Z,8.8
2017-11-29T00:45:09.056Z,8.4
2017-11-29T00:46:12.412Z,8.2
2017-11-29T00:47:16.698Z,7.9
2017-11-29T00:48:19.319Z,7.7
2017-11-29T00:49:22.867Z,7.7
2017-11-29T00:50:25.400Z,8.4
2017-11-29T00:51:27.867Z,8
2017-11-29T00:52:30.442Z,7.8
2017-11-29T00:53:32.904Z,7.9
2017-11-29T00:54:35.197Z,7.8
2017-11-29T00:55:37.722Z,8.1
2017-11-29T00:56:40.231Z,7.8
2017-11-29T00:57:42.939Z,7.5
2017-11-29T00:58:46.357Z,7.4
2017-11-29T00:59:49.178Z,7.5
2017-11-29T01:00:51.786Z,8.1
2017-11-29T01:01:54.247Z,7.9
2017-11-29T01:02:56.601Z,7.7
2017-11-29T01:03:58.995Z,7.5
2017-11-29T01:05:01.401Z,7.8
2017-11-29T01:06:06.276Z,7.5
2017-11-29T01:07:08.878Z,7.9
2017-11-29T01:08:11.503Z,7.4
2017-11-29T01:09:15.343Z,7.6
2017-11-29T01:10:17.857Z,7.5
2017-11-29T01:11:20.444Z,7.3
2017-11-29T01:12:23.012Z,7.3
2017-11-29T01:13:25.520Z,7.6
2017-11-29T01:14:27.888Z,7.3
2017-11-29T01:15:30.358Z,7.4
2017-11-29T01:16:32.682Z,7.3
2017-11-29T01:17:35.034Z,7.4
2017-11-29T01:18:37.398Z,7.4
2017-11-29T01:19:39.727Z,7.4
2017-11-29T01:20:42.096Z,7.2
2017-11-29T01:21:44.482Z,7.1
2017-11-29T01:22:46.845Z,6.8
2017-11-29T01:23:49.407Z,7.2
2017-11-29T01:24:51.808Z,7.4
2017-11-29T01:25:54.164Z,7.2
2017-11-29T01:26:56.591Z,6.9
2017-11-29T01:27:58.994Z,6.9
2017-11-29T01:29:01.680Z,7.2
2017-11-29T01:30:07.450Z,7.1
2017-11-29T01:31:11.686Z,6.9
2017-11-29T01:32:15.033Z,7
2017-11-29T01:33:17.425Z,7.2
2017-11-29T01:34:19.744Z,7.3
2017-11-29T01:35:22.184Z,7.2
2017-11-29T01:36:24.612Z,7.4
2017-11-29T01:37:27.054Z,7.5
2017-11-29T01:38:29.454Z,7.9
2017-11-29T01:39:31.858Z,7.6
2017-11-29T01:40:34.200Z,7.2
2017-11-29T01:41:36.581Z,7.5
2017-11-29T01:42:38.882Z,7.3
2017-11-29T01:43:41.279Z,7.4
2017-11-29T01:44:43.669Z,7.7
2017-11-29T01:45:46.006Z,7.2
2017-11-29T01:46:48.441Z,7
2017-11-29T01:47:50.795Z,7.2
2017-11-29T01:48:53.172Z,7.4
2017-11-29T01:49:55.492Z,7.2
2017-11-29T01:50:57.933Z,7.1
2017-11-29T01:52:00.396Z,7.2
2017-11-29T01:53:04.257Z,7.1
2017-11-29T01:54:06.843Z,7.3
2017-11-29T01:55:09.734Z,7.1
2017-11-29T01:56:12.331Z,6.9
2017-11-29T01:57:14.777Z,7.3
2017-11-29T01:58:17.408Z,7.3
2017-11-29T01:59:19.841Z,7.3
2017-11-29T02:00:22.398Z,7
2017-11-29T02:01:24.941Z,7
2017-11-29T02:02:27.395Z,7.1
2017-11-29T02:03:29.791Z,6.8
2017-11-29T02:04:32.231Z,6.8
2017-11-29T02:05:34.846Z,7
2017-11-29T02:06:37.272Z,6.8
2017-11-29T02:07:39.656Z,6.6
2017-11-29T02:08:41.936Z,6.5
2017-11-29T02:09:44.325Z,6.3
2017-11-29T02:10:46.687Z,6.7
2017-11-29T02:11:49.015Z,6.7
2017-11-29T02:12:51.406Z,6.6
2017-11-29T02:13:53.690Z,6.3
2017-11-29T02:14:56.022Z,6.6
2017-11-29T02:15:58.494Z,6.6
2017-11-29T02:17:00.913Z,6.6
2017-11-29T02:18:04.861Z,6.6
2017-11-29T02:19:08.074Z,7
2017-11-29T02:20:10.674Z,7.1
2017-11-29T02:21:14.397Z,6.6
2017-11-29T02:22:17.071Z,6.6
2017-11-29T02:23:19.409Z,6.8
2017-11-29T02:24:21.977Z,6.4
2017-11-29T02:25:24.471Z,6.4
2017-11-29T02:26:26.925Z,6.5
2017-11-29T02:27:29.424Z,6.5
2017-11-29T02:28:31.910Z,6.8
2017-11-29T02:29:34.346Z,6.5
2017-11-29T02:30:36.868Z,6.4
2017-11-29T02:31:39.690Z,6.5
2017-11-29T02:32:43.604Z,6.3
2017-11-29T02:33:46.110Z,6.3
2017-11-29T02:34:48.704Z,6.2
2017-11-29T02:35:51.254Z,6.2
2017-11-29T02:36:53.728Z,6.3
2017-11-29T02:37:56.017Z,6.4
2017-11-29T02:38:58.330Z,6.2
2017-11-29T02:40:00.843Z,6.3
2017-11-29T02:41:03.362Z,6.3
2017-11-29T02:42:05.830Z,6.2
2017-11-29T02:43:08.241Z,6.4
2017-11-29T02:44:10.739Z,6.2
2017-11-29T02:45:14.371Z,6.3
2017-11-29T02:46:16.998Z,6.2
2017-11-29T02:47:19.555Z,6.2
2017-11-29T02:48:22.196Z,6.2
2017-11-29T02:49:24.744Z,6.2
2017-11-29T02:50:27.386Z,6.3
2017-11-29T02:51:29.833Z,6.3
2017-11-29T02:52:32.367Z,6.4
2017-11-29T02:53:34.741Z,6.3
2017-11-29T02:54:37.020Z,6.3
2017-11-29T02:55:39.472Z,6.3
2017-11-29T02:56:42.055Z,6.4
2017-11-29T02:57:44.396Z,6.5
2017-11-29T02:58:46.704Z,6.4
2017-11-29T02:59:49.070Z,6.3
2017-11-29T03:00:51.460Z,6.4
2017-11-29T03:01:53.964Z,6.3
2017-11-29T03:02:56.561Z,6.9
2017-11-29T03:03:58.889Z,6.7
2017-11-29T03:05:01.259Z,6.6
2017-11-29T03:06:07.440Z,6.5
2017-11-29T03:07:09.811Z,6.6
2017-11-29T03:08:12.307Z,6.6
2017-11-29T03:09:16.519Z,6.5
2017-11-29T03:10:19.144Z,6.6
2017-11-29T03:11:22.230Z,6.5
2017-11-29T03:12:24.641Z,6.5
2017-11-29T03:13:27.006Z,6.3
2017-11-29T03:14:29.447Z,6.6
2017-11-29T03:15:31.975Z,6.5
2017-11-29T03:16:34.509Z,6.5
2017-11-29T03:17:36.928Z,6.6
2017-11-29T03:18:39.360Z,6.4
2017-11-29T03:19:41.734Z,6.2
2017-11-29T03:20:44.125Z,6.3
2017-11-29T03:21:46.646Z,6.2
2017-11-29T03:22:49.001Z,6.2
2017-11-29T03:23:51.464Z,6.2
2017-11-29T03:24:53.906Z,6.2
2017-11-29T03:25:56.254Z,6.3
2017-11-29T03:26:58.533Z,6.2
2017-11-29T03:28:01.146Z,6.2
2017-11-29T03:29:03.795Z,6.2
2017-11-29T03:30:08.315Z,6.2
2017-11-29T03:31:11.806Z,6.5
2017-11-29T03:32:14.258Z,6.5
2017-11-29T03:33:16.668Z,6.5
2017-11-29T03:34:18.990Z,6.3
2017-11-29T03:35:21.528Z,6.4
2017-11-29T03:36:23.846Z,6.6
2017-11-29T03:37:26.372Z,6.4
2017-11-29T03:38:28.836Z,6.6
2017-11-29T03:39:31.317Z,6.9
2017-11-29T03:40:33.738Z,6.5
2017-11-29T03:41:36.135Z,6.3
2017-11-29T03:42:38.482Z,6.2
2017-11-29T03:43:40.884Z,6.1
2017-11-29T03:44:43.250Z,6.1
2017-11-29T03:45:45.541Z,6.1
2017-11-29T03:46:47.872Z,6.3
2017-11-29T03:47:50.213Z,6.3
2017-11-29T03:48:52.611Z,6.3
2017-11-29T03:49:54.892Z,6.2
2017-11-29T03:50:57.169Z,6.1
2017-11-29T03:51:59.580Z,6.1
2017-11-29T03:53:01.999Z,6.1
2017-11-29T03:54:04.619Z,6.1
2017-11-29T03:55:07.346Z,5.8
2017-11-29T03:56:10.257Z,5.9
2017-11-29T03:57:12.951Z,6
2017-11-29T03:58:15.555Z,6.1
2017-11-29T03:59:17.963Z,5.9
2017-11-29T04:00:20.680Z,5.9
2017-11-29T04:01:23.285Z,5.9
2017-11-29T04:02:26.575Z,6
2017-11-29T04:03:30.388Z,5.9
2017-11-29T04:04:32.763Z,5.9
2017-11-29T04:05:35.159Z,6.1
2017-11-29T04:06:37.589Z,6.1
2017-11-29T04:07:39.928Z,5.9
2017-11-29T04:08:42.371Z,5.8
2017-11-29T04:09:44.687Z,5.9
2017-11-29T04:10:47.122Z,6.1
2017-11-29T04:11:49.478Z,6
2017-11-29T04:12:51.748Z,5.8
2017-11-29T04:13:54.063Z,5.9
2017-11-29T04:14:56.373Z,6.2
2017-11-29T04:15:58.777Z,6
2017-11-29T04:17:01.253Z,5.9
2017-11-29T04:18:03.704Z,5.6
2017-11-29T04:19:06.162Z,5.7
2017-11-29T04:20:09.882Z,5.8
2017-11-29T04:21:15.920Z,6.3
2017-11-29T04:22:18.598Z,6.1
2017-11-29T04:23:21.091Z,5.8
2017-11-29T04:24:23.463Z,6.1
2017-11-29T04:25:25.979Z,6
2017-11-29T04:26:28.438Z,6.1
2017-11-29T04:27:30.945Z,6.2
2017-11-29T04:28:33.500Z,5.9
2017-11-29T04:29:35.926Z,6
2017-11-29T04:30:39.174Z,5.9
2017-11-29T04:31:43.790Z,5.7
2017-11-29T04:32:47.925Z,6.4
2017-11-29T04:33:50.581Z,6.1
2017-11-29T04:34:53.051Z,6.1
2017-11-29T04:35:55.521Z,6.1
2017-11-29T04:36:58.014Z,6.1
2017-11-29T04:38:00.387Z,6
2017-11-29T04:39:03.111Z,6.4
2017-11-29T04:40:05.765Z,6.7
2017-11-29T04:41:08.297Z,6.7
2017-11-29T04:42:10.930Z,6.4
2017-11-29T04:43:14.847Z,6.2
2017-11-29T04:44:17.464Z,6.1
2017-11-29T04:45:19.897Z,6
2017-11-29T04:46:22.372Z,5.8
2017-11-29T04:47:24.925Z,6.3
2017-11-29T04:48:27.534Z,6.4
2017-11-29T04:49:30.048Z,6.7
2017-11-29T04:50:32.729Z,6.7
2017-11-29T04:51:35.211Z,6.6
2017-11-29T04:52:37.532Z,6.7
2017-11-29T04:53:39.880Z,7.3
2017-11-29T04:54:42.300Z,7.4
2017-11-29T04:55:44.738Z,6.6
2017-11-29T04:56:49.465Z,6.5
2017-11-29T04:57:53.509Z,7
2017-11-29T04:58:55.808Z,6.6
2017-11-29T04:59:58.236Z,6.5
2017-11-29T05:01:00.852Z,6.5
2017-11-29T05:02:03.428Z,6.6
2017-11-29T05:03:05.939Z,7.3
2017-11-29T05:04:08.354Z,7.4
2017-11-29T05:05:11.298Z,7.1
2017-11-29T05:06:14.108Z,7
2017-11-29T05:07:20.801Z,6.7
2017-11-29T05:08:23.303Z,6.7
2017-11-29T05:09:26.802Z,6.6
2017-11-29T05:10:29.476Z,6.2
2017-11-29T05:11:31.925Z,6
2017-11-29T05:12:34.317Z,6.1
2017-11-29T05:13:36.771Z,6
2017-11-29T05:14:39.200Z,6.2
2017-11-29T05:15:41.886Z,6.2
2017-11-29T05:16:45.926Z,6.1
2017-11-29T05:17:48.287Z,6.1
2017-11-29T05:18:50.729Z,5.9
2017-11-29T05:19:53.204Z,5.9
2017-11-29T05:20:56.668Z,5.9
2017-11-29T05:21:59.213Z,5.8
2017-11-29T05:23:01.735Z,5.8
2017-11-29T05:24:04.295Z,5.9
2017-11-29T05:26:23.202Z,5.9
2017-11-29T05:27:25.773Z,5.9
2017-11-29T05:28:28.224Z,5.7
2017-11-29T05:29:30.857Z,6
2017-11-29T05:30:33.481Z,6.1
2017-11-29T05:31:36.294Z,5.8
2017-11-29T05:32:38.831Z,5.8
2017-11-29T05:33:41.604Z,6.3
2017-11-29T05:34:44.121Z,6.4
2017-11-29T05:35:46.620Z,6.2
2017-11-29T05:36:49.242Z,6
2017-11-29T05:37:51.686Z,5.8
2017-11-29T05:38:54.050Z,5.8
2017-11-29T05:39:56.397Z,5.9
2017-11-29T05:41:00.426Z,5.9
2017-11-29T05:42:05.156Z,5.7
2017-11-29T05:43:07.598Z,5.5
2017-11-29T05:44:10.043Z,5.5
2017-11-29T05:45:12.752Z,5.4
2017-11-29T05:46:17.707Z,5.5
2017-11-29T05:47:20.704Z,5.5
2017-11-29T05:48:23.433Z,5.5
2017-11-29T05:49:25.847Z,5.6
2017-11-29T05:50:28.262Z,5.7
2017-11-29T05:51:30.721Z,5.7
2017-11-29T05:52:33.249Z,5.8
2017-11-29T05:53:35.629Z,5.7
2017-11-29T05:54:37.972Z,5.6
2017-11-29T05:55:40.596Z,5.6
2017-11-29T05:56:43.109Z,5.6
2017-11-29T05:57:45.640Z,5.7
2017-11-29T05:58:48.032Z,5.6
2017-11-29T05:59:50.510Z,5.4
2017-11-29T06:00:53.138Z,5.5
2017-11-29T06:01:55.707Z,5.5
2017-11-29T06:02:58.058Z,5.6
2017-11-29T06:04:01.719Z,5.5
2017-11-29T06:05:07.223Z,5.5
2017-11-29T06:06:10.063Z,5.5
2017-11-29T06:07:12.781Z,5.6
2017-11-29T06:08:15.917Z,5.7
2017-11-29T06:09:19.063Z,5.7
2017-11-29T06:10:21.652Z,5.7
2017-11-29T06:11:24.119Z,5.5
2017-11-29T06:12:26.682Z,5.5
2017-11-29T06:13:29.205Z,5.6
2017-11-29T06:14:31.925Z,5.6
2017-11-29T06:15:34.452Z,5.7
2017-11-29T06:16:36.953Z,5.6
2017-11-29T06:17:39.404Z,5.5
2017-11-29T06:18:41.851Z,5.5
2017-11-29T06:19:44.153Z,5.5
2017-11-29T06:20:47.742Z,5.4
2017-11-29T06:21:50.607Z,5.5
2017-11-29T06:22:53.649Z,5.6
2017-11-29T06:23:56.111Z,5.4
2017-11-29T06:24:58.994Z,5.4
2017-11-29T06:26:02.157Z,5.5
2017-11-29T06:27:04.988Z,5.5
2017-11-29T06:28:10.109Z,5.4
2017-11-29T06:29:12.907Z,5.5
2017-11-29T06:30:15.842Z,5.5
2017-11-29T06:31:20.707Z,5.4
2017-11-29T06:32:23.396Z,5.5
2017-11-29T06:33:26.240Z,5.5
2017-11-29T06:34:28.689Z,5.6
2017-11-29T06:35:31.255Z,5.6
2017-11-29T06:36:33.803Z,5.6
2017-11-29T06:37:36.440Z,5.5
2017-11-29T06:38:38.921Z,5.4
2017-11-29T06:39:41.558Z,5.4
2017-11-29T06:40:44.272Z,5.4
2017-11-29T06:41:46.696Z,5.4
2017-11-29T06:42:49.269Z,5.4
2017-11-29T06:43:51.876Z,5.5
2017-11-29T06:44:54.422Z,5.5
2017-11-29T06:45:56.817Z,5.7
2017-11-29T06:46:59.190Z,5.5
2017-11-29T06:48:01.902Z,5.7
2017-11-29T06:49:06.584Z,5.6
2017-11-29T06:50:13.956Z,5.8
2017-11-29T06:51:16.741Z,5.7
2017-11-29T06:52:20.174Z,5.8
2017-11-29T06:53:22.890Z,5.9
2017-11-29T06:54:25.439Z,5.8
2017-11-29T06:55:28.124Z,5.6
2017-11-29T06:56:30.776Z,5.7
2017-11-29T06:57:33.371Z,6
2017-11-29T06:58:35.804Z,6
2017-11-29T06:59:38.187Z,5.7
2017-11-29T07:00:41.902Z,5.6
2017-11-29T07:01:45.374Z,5.6
2017-11-29T07:02:48.128Z,5.8
2017-11-29T07:03:50.792Z,8.4
2017-11-29T07:04:53.273Z,10.8
2017-11-29T07:05:55.665Z,11.9
2017-11-29T07:06:58.110Z,12.5
2017-11-29T07:08:00.522Z,12.9
2017-11-29T07:09:04.571Z,12.9
2017-11-29T07:10:07.329Z,13.1
2017-11-29T07:11:12.393Z,13.1
2017-11-29T07:12:14.895Z,12.9
2017-11-29T07:13:17.515Z,12.4
2017-11-29T07:14:20.112Z,12
2017-11-29T07:15:22.825Z,11.6
2017-11-29T07:16:25.445Z,11.3
2017-11-29T07:17:28.049Z,11.1
2017-11-29T07:18:31.287Z,10.9
2017-11-29T07:19:33.840Z,10.7
2017-11-29T07:20:36.518Z,10.8
2017-11-29T07:21:39.264Z,11.9
2017-11-29T07:22:42.042Z,12.8
2017-11-29T07:23:45.574Z,12.6
2017-11-29T07:24:48.169Z,12.3
2017-11-29T07:25:50.618Z,12.2
2017-11-29T07:26:53.305Z,11.8
2017-11-29T07:27:55.969Z,11.5
2017-11-29T07:28:58.412Z,11.3
2017-11-29T07:30:01.499Z,11.1
2017-11-29T07:31:16.227Z,11
2017-11-29T07:32:18.771Z,10.9
2017-11-29T07:33:21.295Z,10.9
2017-11-29T07:34:23.918Z,10.9
2017-11-29T07:35:27.102Z,10.8
2017-11-29T07:36:29.767Z,10.9
2017-11-29T07:37:33.064Z,10.8
2017-11-29T07:38:35.890Z,10.8
2017-11-29T07:39:38.257Z,10.8
2017-11-29T07:40:40.965Z,10.8
2017-11-29T07:41:45.121Z,10.8
2017-11-29T07:42:47.769Z,10.8
2017-11-29T07:43:50.230Z,10.8
2017-11-29T07:44:52.873Z,10.8
2017-11-29T07:45:55.323Z,10.8
2017-11-29T07:46:57.753Z,10.8
2017-11-29T07:48:01.058Z,10.8
2017-11-29T07:49:06.988Z,10.8
2017-11-29T07:51:18.773Z,10.8
2017-11-29T07:52:21.536Z,10.8
2017-11-29T07:53:24.138Z,10.8
2017-11-29T07:54:26.762Z,10.8
2017-11-29T07:55:31.820Z,10.9
2017-11-29T07:56:34.564Z,10.8
2017-11-29T07:57:37.890Z,10.9
2017-11-29T07:58:40.611Z,10.9
2017-11-29T07:59:43.213Z,10.8
2017-11-29T08:00:45.807Z,10.9
2017-11-29T08:01:49.788Z,10.9
2017-11-29T08:02:52.803Z,10.9
2017-11-29T08:03:55.204Z,10.9
2017-11-29T08:04:57.689Z,11
2017-11-29T08:06:00.931Z,11
2017-11-29T08:07:03.989Z,11
2017-11-29T08:08:12.979Z,11
2017-11-29T08:09:15.857Z,11
2017-11-29T08:10:19.334Z,11
2017-11-29T08:11:23.264Z,11
2017-11-29T08:12:27.086Z,11
2017-11-29T08:13:29.816Z,11
2017-11-29T08:14:33.184Z,10.9
2017-11-29T08:15:35.790Z,11.1
2017-11-29T08:16:38.393Z,11.8
2017-11-29T08:17:40.806Z,12.8
2017-11-29T08:18:43.344Z,13.3
2017-11-29T08:19:47.832Z,13.6
2017-11-29T08:20:50.384Z,13.8
2017-11-29T08:21:52.863Z,13.7
2017-11-29T08:22:55.426Z,13.7
2017-11-29T08:23:57.922Z,13.9
2017-11-29T08:25:00.557Z,14
2017-11-29T08:26:09.348Z,13.9
2017-11-29T08:27:12.930Z,13.9
2017-11-29T08:28:16.539Z,14
2017-11-29T08:29:19.560Z,13.8
2017-11-29T08:30:24.963Z,13.5
2017-11-29T08:31:33.300Z,13.3
2017-11-29T08:32:36.976Z,12.7
2017-11-29T08:33:39.644Z,12.6
2017-11-29T08:34:42.442Z,12.4
2017-11-29T08:35:46.911Z,12.3
2017-11-29T08:36:49.833Z,12.1
2017-11-29T08:37:53.254Z,12
2017-11-29T08:38:56.160Z,11.9
2017-11-29T08:39:59.319Z,11.9
2017-11-29T08:41:03.144Z,11.8
2017-11-29T08:42:15.605Z,11.8
2017-11-29T08:43:21.069Z,11.8
2017-11-29T08:44:23.654Z,11.8
2017-11-29T08:45:27.593Z,11.8
2017-11-29T08:46:30.654Z,11.8
2017-11-29T08:47:34.942Z,11.8
2017-11-29T08:48:37.762Z,11.9
2017-11-29T08:49:41.289Z,11.7
2017-11-29T08:50:44.123Z,11.7
2017-11-29T08:51:46.705Z,11.8
2017-11-29T08:52:49.273Z,11.8
2017-11-29T08:53:51.758Z,11.8
2017-11-29T08:54:54.420Z,11.8
2017-11-29T08:55:57.100Z,11.7
2017-11-29T08:57:00.175Z,11.8
2017-11-29T08:58:03.667Z,11.8
2017-11-29T08:59:12.896Z,11.8
2017-11-29T09:00:17.382Z,11.8
2017-11-29T09:01:23.273Z,11.8
2017-11-29T09:02:27.036Z,11.8
2017-11-29T09:03:29.936Z,11.8
2017-11-29T09:04:32.611Z,11.9
2017-11-29T09:05:35.467Z,11.8
2017-11-29T09:06:38.076Z,11.8
2017-11-29T09:07:40.732Z,11.8
2017-11-29T09:08:45.036Z,11.9
2017-11-29T09:09:47.738Z,11.9
2017-11-29T09:10:51.492Z,11.9
2017-11-29T09:11:55.457Z,11.8
2017-11-29T09:12:58.751Z,11.8
2017-11-29T09:14:01.392Z,11.8
2017-11-29T09:16:23.729Z,11.8
2017-11-29T09:17:28.524Z,11.8
2017-11-29T09:18:31.324Z,11.8
2017-11-29T09:19:33.974Z,11.9
2017-11-29T09:20:37.262Z,11.9
2017-11-29T09:21:40.804Z,11.9
2017-11-29T09:22:43.251Z,11.9
2017-11-29T09:23:45.703Z,11.8
2017-11-29T09:24:48.228Z,11.9
2017-11-29T09:25:50.921Z,11.9
2017-11-29T09:26:53.590Z,11.9
2017-11-29T09:27:57.000Z,11.9
2017-11-29T09:28:59.562Z,11.8
2017-11-29T09:31:16.924Z,11.9
2017-11-29T09:32:19.584Z,11.9
2017-11-29T09:33:22.939Z,11.9
2017-11-29T09:34:26.663Z,11.9
2017-11-29T09:35:29.170Z,11.9
2017-11-29T09:36:31.721Z,11.9
2017-11-29T09:37:36.002Z,11.9
2017-11-29T09:38:38.409Z,11.9
2017-11-29T09:39:40.889Z,11.9
2017-11-29T09:40:44.226Z,12
2017-11-29T09:41:51.515Z,11.9
2017-11-29T09:42:59.296Z,11.9
2017-11-29T09:44:01.858Z,11.9
2017-11-29T09:45:07.887Z,11.9
2017-11-29T09:46:17.114Z,11.9
2017-11-29T09:47:20.003Z,11.9
2017-11-29T09:48:22.805Z,12
2017-11-29T09:49:25.507Z,12
2017-11-29T09:50:29.502Z,11.9
2017-11-29T09:51:32.750Z,12
2017-11-29T09:52:35.492Z,12
2017-11-29T09:53:40.305Z,11.9
2017-11-29T09:54:44.014Z,12
2017-11-29T09:55:47.163Z,12
2017-11-29T09:56:52.788Z,11.9
2017-11-29T09:57:55.666Z,12
2017-11-29T09:58:58.191Z,11.9
2017-11-29T10:00:00.867Z,11.9
2017-11-29T10:01:27.048Z,11.9
2017-11-29T10:02:29.735Z,12
2017-11-29T10:03:32.329Z,12
2017-11-29T10:04:35.269Z,12
2017-11-29T10:05:38.170Z,11.9
2017-11-29T10:06:42.982Z,12
2017-11-29T10:07:46.762Z,11.9
2017-11-29T10:08:50.514Z,11.9
2017-11-29T10:09:52.943Z,11.9
2017-11-29T10:10:55.592Z,12
2017-11-29T10:11:58.746Z,12
2017-11-29T10:13:01.272Z,12
2017-11-29T10:14:04.571Z,11.9
2017-11-29T10:15:14.625Z,11.9
2017-11-29T10:16:18.849Z,12
2017-11-29T10:17:22.194Z,12
2017-11-29T10:18:25.513Z,12
2017-11-29T10:19:29.452Z,12
2017-11-29T10:20:33.712Z,11.9
2017-11-29T10:21:38.043Z,12
2017-11-29T10:22:40.931Z,12
2017-11-29T10:23:44.436Z,11.9
2017-11-29T10:24:48.029Z,11.9
2017-11-29T10:25:52.094Z,12
2017-11-29T10:26:56.618Z,12
2017-11-29T10:28:03.483Z,12
2017-11-29T10:29:11.857Z,11.9
2017-11-29T10:30:16.785Z,12
2017-11-29T10:31:25.357Z,12
2017-11-29T10:32:29.531Z,12
2017-11-29T10:33:32.544Z,11.9
2017-11-29T10:34:35.168Z,12
2017-11-29T10:35:38.867Z,12
2017-11-29T10:36:43.844Z,11.9
2017-11-29T10:37:53.885Z,12
2017-11-29T10:38:57.346Z,12
2017-11-29T10:40:01.017Z,12
2017-11-29T10:41:10.808Z,12
2017-11-29T10:42:13.480Z,12
2017-11-29T10:43:17.244Z,12
2017-11-29T10:44:20.556Z,12
2017-11-29T10:45:24.634Z,12
2017-11-29T10:46:28.439Z,12.1
2017-11-29T10:47:32.199Z,12
2017-11-29T10:48:34.828Z,12.1
2017-11-29T10:49:37.648Z,12.1
2017-11-29T10:50:41.365Z,12.1
2017-11-29T10:51:46.371Z,12
2017-11-29T10:52:48.800Z,12
2017-11-29T10:53:51.393Z,12.1
2017-11-29T10:54:53.817Z,12.1
2017-11-29T10:55:56.406Z,12.1
2017-11-29T10:56:59.036Z,12
2017-11-29T10:58:02.292Z,12
2017-11-29T10:59:06.723Z,12.1
2017-11-29T11:01:23.847Z,12.1
2017-11-29T11:02:27.931Z,12.1
2017-11-29T11:03:32.795Z,12.1
2017-11-29T11:04:35.610Z,12.1
2017-11-29T11:05:39.435Z,12.1
2017-11-29T11:06:43.245Z,12.1
2017-11-29T11:07:49.407Z,12.1
2017-11-29T11:08:52.157Z,12.1
2017-11-29T11:09:57.080Z,12.1
2017-11-29T11:11:00.369Z,12.1
2017-11-29T11:12:07.238Z,12.1
2017-11-29T11:13:24.674Z,12.1
2017-11-29T11:14:28.276Z,12.1
2017-11-29T11:15:30.993Z,12.1
2017-11-29T11:16:36.486Z,12.1
2017-11-29T11:17:41.065Z,12.1
2017-11-29T11:18:44.776Z,12.1
2017-11-29T11:19:48.641Z,12.1
2017-11-29T11:20:52.496Z,12.1
2017-11-29T11:21:55.276Z,12.1
2017-11-29T11:24:06.519Z,12.1
2017-11-29T11:25:12.696Z,12.1
2017-11-29T11:26:15.679Z,12.1
2017-11-29T11:27:18.451Z,12.1
2017-11-29T11:28:22.996Z,12.1
2017-11-29T11:29:28.193Z,12
2017-11-29T11:30:32.004Z,12.1
2017-11-29T11:31:36.849Z,12.1
2017-11-29T11:32:39.587Z,12.1
2017-11-29T11:33:44.137Z,12.1
2017-11-29T11:34:52.130Z,12.1
2017-11-29T11:35:57.391Z,12.1
2017-11-29T11:37:01.344Z,12.1
2017-11-29T11:38:09.724Z,12.1
2017-11-29T11:39:13.710Z,12.1
2017-11-29T11:40:19.771Z,12.1
2017-11-29T11:41:27.683Z,12
2017-11-29T11:42:31.032Z,12.1
2017-11-29T11:43:33.812Z,12.1
2017-11-29T11:44:39.715Z,12.1
2017-11-29T11:45:43.925Z,12.1
2017-11-29T11:46:48.446Z,12.2
2017-11-29T11:47:52.000Z,12.1
2017-11-29T11:48:54.740Z,12.1
2017-11-29T11:49:57.570Z,12.1
2017-11-29T11:51:33.860Z,12.1
2017-11-29T11:52:36.684Z,12.1
2017-11-29T11:53:39.504Z,12.2
2017-11-29T11:54:42.782Z,12.2
2017-11-29T11:55:46.565Z,12.1
2017-11-29T11:56:51.115Z,12.1
2017-11-29T11:57:57.171Z,12.1
2017-11-29T11:58:59.699Z,12.1
2017-11-29T12:01:27.410Z,12.1
2017-11-29T12:02:33.444Z,12.2
2017-11-29T12:03:49.420Z,12.1
2017-11-29T12:04:51.940Z,12.1
2017-11-29T12:05:56.339Z,12.1
2017-11-29T12:06:59.883Z,12.2
2017-11-29T12:09:16.622Z,12.2
2017-11-29T12:10:23.757Z,12.2
2017-11-29T12:11:28.438Z,12.1
2017-11-29T12:12:33.293Z,12.1
2017-11-29T12:13:36.526Z,12.1
2017-11-29T12:14:49.229Z,12.1
2017-11-29T12:15:52.037Z,12.1
2017-11-29T12:16:54.833Z,12.2
2017-11-29T12:18:00.066Z,12.1
2017-11-29T12:19:08.667Z,12.1
2017-11-29T12:20:14.308Z,12.2
2017-11-29T12:21:23.550Z,12.2
2017-11-29T12:22:26.310Z,12.2
2017-11-29T12:23:29.072Z,12.2
2017-11-29T12:24:33.716Z,12.2
2017-11-29T12:25:36.571Z,12.2
2017-11-29T12:26:40.712Z,12.2
2017-11-29T12:27:45.401Z,12.2
2017-11-29T12:28:50.739Z,12
2017-11-29T12:29:53.277Z,12.2
2017-11-29T12:30:56.107Z,12.2
2017-11-29T12:32:00.131Z,12.2
2017-11-29T12:33:03.314Z,12.2
2017-11-29T12:34:06.916Z,12.2
2017-11-29T12:35:14.356Z,12.2
2017-11-29T12:37:25.424Z,12.2
2017-11-29T12:38:28.231Z,12.2
2017-11-29T12:39:31.043Z,12.2
2017-11-29T12:40:34.573Z,12.2
2017-11-29T12:41:38.505Z,12.2
2017-11-29T12:42:42.175Z,12.2
2017-11-29T12:43:45.259Z,12.2
2017-11-29T12:44:48.218Z,12.1
2017-11-29T12:45:51.678Z,12.2
2017-11-29T12:46:55.222Z,12.1
2017-11-29T12:47:57.871Z,12.2
2017-11-29T12:49:00.326Z,12.2
2017-11-29T12:51:17.606Z,12.2
2017-11-29T12:52:21.539Z,12.2
2017-11-29T12:53:26.795Z,12.2
2017-11-29T12:54:31.445Z,12.2
2017-11-29T12:55:36.162Z,12.3
2017-11-29T12:56:49.217Z,12.3
2017-11-29T12:57:51.646Z,12.3
2017-11-29T12:58:54.178Z,12.3
2017-11-29T12:59:56.848Z,12.1
2017-11-29T13:01:01.052Z,12.2
2017-11-29T13:02:09.422Z,12.3
2017-11-29T13:03:12.905Z,12.3
2017-11-29T13:04:16.785Z,12.3
2017-11-29T13:05:20.042Z,12.2
2017-11-29T13:06:22.626Z,12.3
2017-11-29T13:07:25.239Z,12.3
2017-11-29T13:08:30.712Z,12.3
2017-11-29T13:09:33.640Z,12.3
2017-11-29T13:10:40.274Z,12.4
2017-11-29T13:11:43.161Z,12.4
2017-11-29T13:12:46.703Z,12.3
2017-11-29T13:13:49.186Z,12.3
2017-11-29T13:14:51.659Z,12.4
2017-11-29T13:15:54.365Z,12.3
2017-11-29T13:16:58.081Z,12.3
2017-11-29T13:18:00.648Z,12.3
2017-11-29T13:19:03.999Z,12.3
2017-11-29T13:20:10.235Z,12.3
2017-11-29T13:21:15.098Z,12.3
2017-11-29T13:22:17.837Z,12.3
2017-11-29T13:23:20.648Z,12.2
2017-11-29T13:24:24.793Z,12.3
2017-11-29T13:25:29.227Z,12.3
2017-11-29T13:26:38.464Z,12.3
2017-11-29T13:27:41.488Z,12.3
2017-11-29T13:28:45.415Z,12.3
2017-11-29T13:29:49.965Z,12.3
2017-11-29T13:30:53.468Z,12.3
2017-11-29T13:31:58.643Z,12.3
2017-11-29T13:33:02.859Z,12.4
2017-11-29T13:34:07.046Z,12.4
2017-11-29T13:35:15.242Z,12.3
2017-11-29T13:36:18.725Z,12.3
2017-11-29T13:37:22.515Z,12.3
2017-11-29T13:38:33.167Z,12.2
2017-11-29T13:39:36.951Z,12.3
2017-11-29T13:40:41.187Z,12.3
2017-11-29T13:41:44.270Z,12.2
2017-11-29T13:42:49.081Z,12.3
2017-11-29T13:43:51.580Z,12.2
2017-11-29T13:44:54.112Z,12.3
2017-11-29T13:45:57.055Z,12.3
2017-11-29T13:47:00.753Z,12.3
2017-11-29T13:48:04.482Z,12.4
2017-11-29T13:49:12.066Z,12.4
2017-11-29T13:50:23.743Z,12.4
2017-11-29T13:51:27.433Z,12.4
2017-11-29T13:52:31.511Z,12.4
2017-11-29T13:53:34.237Z,12.4
2017-11-29T13:54:36.974Z,12.4
2017-11-29T13:55:48.754Z,12.3
2017-11-29T13:56:51.355Z,12.3
2017-11-29T13:57:53.788Z,12.4
2017-11-29T13:58:56.303Z,12.3
2017-11-29T13:59:58.897Z,12.3
2017-11-29T14:01:08.765Z,12.3
2017-11-29T14:02:15.526Z,12.3
2017-11-29T14:03:18.641Z,12.3
2017-11-29T14:04:22.395Z,12.3
2017-11-29T14:05:25.286Z,12.3
2017-11-29T14:06:27.909Z,12.3
2017-11-29T14:07:31.703Z,12.3
2017-11-29T14:08:37.705Z,12.3
2017-11-29T14:09:40.523Z,12.3
2017-11-29T14:10:43.000Z,12.3
2017-11-29T14:11:45.758Z,12.4
2017-11-29T14:12:49.494Z,12.3
2017-11-29T14:13:52.074Z,12.4
2017-11-29T14:14:54.632Z,12.3
2017-11-29T14:15:57.624Z,12.2
2017-11-29T14:17:00.099Z,12.3
2017-11-29T14:18:05.956Z,12.3
2017-11-29T14:19:09.399Z,12.2
2017-11-29T14:20:13.556Z,12.3
2017-11-29T14:21:16.776Z,12.3
2017-11-29T14:22:21.809Z,12.3
2017-11-29T14:23:25.192Z,12.3
2017-11-29T14:24:28.002Z,12.3
2017-11-29T14:25:30.757Z,12.4
2017-11-29T14:26:33.542Z,12.3
2017-11-29T14:27:36.349Z,12.3
2017-11-29T14:28:39.841Z,12.4
2017-11-29T14:29:42.504Z,12.3
2017-11-29T14:30:46.469Z,12.4
2017-11-29T14:31:51.524Z,12.3
2017-11-29T14:32:54.737Z,12.3
2017-11-29T14:33:57.410Z,12.3
2017-11-29T14:34:59.921Z,12.3
2017-11-29T14:36:02.831Z,12.3